METAR (acronimo di METeorological Air Report) è un messaggio meteo emesso nella maggior parte dei casi in ambito aeroportuale

GMME - Rabat, Morocco
Ultimo Aggiornamento: Giovedì 03 Dicembre 2020 17:00 CET
Parzialmente Nuvoloso
Parzialmente Nuvoloso
 Wind from Ovest
Vento: Ovest 7 km/h
Temperatura: 19°C
Punto di Rugiada: 14°C
Umidità: 73%
Barometro: 1013 hPa
Nuvole: Parzialmente Nuvoloso
Visibilità: 10 km
Nuvole nel Dettaglio: Parzialmente Nuvoloso 457 m
2020/12/03 16:00 GMME 031600Z 27004KT 230V300 9999 SCT015 19/14 Q1013 NOSIG
DTTA - Tunis-Carthage International Airport, Tunisia
Ultimo Aggiornamento: Giovedì 03 Dicembre 2020 17:30 CET
Qualche Nuvola
Qualche Nuvola
 Wind from Ovest
Vento: Ovest 11 km/h
Temperatura: 13°C
Punto di Rugiada: 8°C
Umidità: 72%
Barometro: 1010 hPa
Nuvole: Qualche Nuvola
Visibilità: 10 km
Nuvole nel Dettaglio: Parzialmente Nuvoloso 701 m
Qualche Nuvola 914 m
2020/12/03 16:30 DTTA 031630Z 27006KT 9999 SCT023 FEW030CB 13/08 Q1010
HSSS - Khartoum, Sudan
Ultimo Aggiornamento: Giovedì 03 Dicembre 2020 17:30 CET
Sereno
Sereno
 Wind from Nord
Vento: Nord 11 km/h
Temperatura: 25°C
Punto di Rugiada: -7°C
Umidità: 11%
Barometro: 1013 hPa
Condizioni: Sereno
Visibilità: superiore a 10 km
2020/12/03 16:30 HSSS 031630Z 35006KT CAVOK 25/M07 Q1013 NOSIG
 
DAAG - Algiers Houari Boumediene Airport, Algeria
Ultimo Aggiornamento: Giovedì 03 Dicembre 2020 17:00 CET
Parzialmente Nuvoloso
Parzialmente Nuvoloso
 Wind from Nord-Est
Vento: Nord-Est 6 km/h
Temperatura: 15°C
Punto di Rugiada: 7°C
Umidità: 59%
Barometro: 1010 hPa
Nuvole: Parzialmente Nuvoloso
Visibilità: 10 km
Nuvole nel Dettaglio: Qualche Nuvola 610 m
Parzialmente Nuvoloso 6096 m
2020/12/03 16:00 DAAG 031600Z 05003KT 9999 FEW020 SCT200 15/07 Q1010
HECA - Cairo International Airport, Egypt
Ultimo Aggiornamento: Giovedì 03 Dicembre 2020 17:30 CET
Foschia, Parzialmente Nuvoloso
Foschia, Parzialmente Nuvoloso
 Wind from Nord-Est
Vento: Nord-Est 2 km/h
Temperatura: 19°C
Punto di Rugiada: 6°C
Umidità: 43%
Barometro: 1016 hPa
Condizioni: Foschia
Nuvole: Parzialmente Nuvoloso
Visibilità: 4 km
Nuvole nel Dettaglio: Parzialmente Nuvoloso 762 m
2020/12/03 16:30 HECA 031630Z 04001KT 4000 HZ SCT025 19/06 Q1016 NOSIG
FTTJ - N’Djamena, Chad
Ultimo Aggiornamento: Giovedì 03 Dicembre 2020 17:00 CET
Sereno
Sereno
 Wind from Nord
Vento: Nord 13 km/h
Temperatura: 33°C
Punto di Rugiada: -1°C
Umidità: 11%
Barometro: 1010 hPa
Condizioni: Sereno
Visibilità: superiore a 10 km
2020/12/03 16:00 FTTJ 031600Z 36007KT CAVOK 33/M01 Q1010 NOSIG
 
FEFF - Bangui, Central African Republic
Ultimo Aggiornamento: Giovedì 03 Dicembre 2020 17:00 CET
Parzialmente Nuvoloso
Parzialmente Nuvoloso
 Wind from varies
Vento: variabile 4 km/h
Temperatura: 34°C
Punto di Rugiada: 17°C
Umidità: 36%
Barometro: 1008 hPa
Nuvole: Parzialmente Nuvoloso
Visibilità: 7 km
2020/12/03 16:00 FEFF 031600Z VRB02KT 7000 NSC 34/17 Q1008 BECMG 4000 HZFU
HBBA - Bujumbura, Burundi
Ultimo Aggiornamento: Giovedì 03 Dicembre 2020 08:00 CET
Dati non Recenti
Prevalentemente Nuvoloso
Prevalentemente Nuvoloso
 Wind from calm
Vento: Calma
Temperatura: 24°C
Punto di Rugiada: 20°C
Umidità: 78%
Barometro: 1016 hPa
Nuvole: Prevalentemente Nuvoloso
Visibilità: 8 km
Nuvole nel Dettaglio: Qualche Nuvola 610 m
Qualche Nuvola 762 m
Prevalentemente Nuvoloso 3048 m
2020/12/03 07:00 HBBA 030700Z 00000KT 8000 FEW020 FEW025CB BKN100 24/20 Q1016 CB AU S-E
FMEE - Saint-Denis, Reunion
Ultimo Aggiornamento: Giovedì 03 Dicembre 2020 17:30 CET

 Wind from Est
Vento: Est 24 km/h
Visibilità: 5 km
2020/12/03 16:30 FMEE 031630Z AUTO 09013KT 4800 2000 RA BR SCT016/// SCT025/// BKN036/// ///CB 25/23 Q1016 TEMPO 2000 SHRA BECMG FEW025
 
DIAP - Abidjan, Ivory coast
Ultimo Aggiornamento: Giovedì 03 Dicembre 2020 17:30 CET
Parzialmente Nuvoloso
Parzialmente Nuvoloso
 Wind from Sud-Ovest
Vento: Sud-Ovest 22 km/h
Temperatura: 30°C
Heat Index: 37°C
Punto di Rugiada: 26°C
Umidità: 79%
Barometro: 1010 hPa
Nuvole: Parzialmente Nuvoloso
Visibilità: 10 km
Nuvole nel Dettaglio: Parzialmente Nuvoloso 457 m
2020/12/03 16:30 DIAP 031630Z 23012KT 9999 SCT015 30/26 Q1010 NOSIG
GUCY - Conakry, Guinea
Ultimo Aggiornamento: Mercoledì 02 Dicembre 2020 17:00 CET
Dati non Recenti
Qualche Nuvola
Qualche Nuvola
 Wind from Sud
Vento: Sud 15 km/h
Temperatura: 31°C
Heat Index: 38°C
Punto di Rugiada: 25°C
Umidità: 70%
Barometro: 1010 hPa
Nuvole: Qualche Nuvola
Visibilità: 10 km
Nuvole nel Dettaglio: Qualche Nuvola 457 m
2020/12/02 16:00 GUCY 021600Z 18008KT 9999 FEW015 31/25 Q1010 NOSIG
GABS - Bamako, Mali
Ultimo Aggiornamento: Giovedì 03 Dicembre 2020 17:30 CET
Sereno
Sereno
 Wind from Est
Vento: Est 9 km/h
Temperatura: 36°C
Punto di Rugiada: 4°C
Umidità: 13%
Barometro: 1012 hPa
Condizioni: Sereno
Visibilità: superiore a 10 km
2020/12/03 16:30 GABS 031630Z 09005KT 040V130 CAVOK 36/04 Q1012 NOSIG
 
DRRN - Niamey, Niger
Ultimo Aggiornamento: Giovedì 03 Dicembre 2020 17:00 CET
Sereno
Sereno
 Wind from Nord-Est
Vento: Nord-Est 19 km/h
Temperatura: 37°C
Punto di Rugiada: -1°C
Umidità: 9%
Barometro: 1010 hPa
Condizioni: Sereno
Visibilità: superiore a 10 km
2020/12/03 16:00 DRRN 031600Z 04010KT CAVOK 37/M01 Q1010 NOSIG
DFFD - Ouagadougou, Burkina Faso
Ultimo Aggiornamento: Giovedì 03 Dicembre 2020 17:00 CET
Sereno
Sereno
 Wind from Est
Vento: Est 17 km/h
Temperatura: 37°C
Punto di Rugiada: 4°C
Umidità: 13%
Barometro: 1011 hPa
Condizioni: Sereno
Visibilità: superiore a 10 km
2020/12/03 16:00 DFFD 031600Z 08009KT 040V120 CAVOK 37/04 Q1011 NOSIG
DNMM - Lagos, Nigeria
Ultimo Aggiornamento: Giovedì 03 Dicembre 2020 17:00 CET
Qualche Nuvola
Qualche Nuvola
 Wind from Sud-Sud-Ovest
Vento: Sud-Sud-Ovest 11 km/h
Temperatura: 31°C
Heat Index: 38°C
Punto di Rugiada: 25°C
Umidità: 70%
Barometro: 1010 hPa
Nuvole: Qualche Nuvola
Visibilità: 10 km
Nuvole nel Dettaglio: Qualche Nuvola 427 m
2020/12/03 16:00 DNMM 031600Z 21006KT 9999 FEW014 31/25 Q1010 NOSIG
 
HKJK - Nairobi Jomo Kenyatta International Airport, Kenya
Ultimo Aggiornamento: Giovedì 03 Dicembre 2020 06:00 CET
Dati non Recenti
Prevalentemente Nuvoloso
Prevalentemente Nuvoloso
 Wind from Nord-Est
Vento: Nord-Est 7 km/h
Temperatura: 18°C
Punto di Rugiada: 14°C
Umidità: 78%
Nuvole: Prevalentemente Nuvoloso
Visibilità: 10 km
Nuvole nel Dettaglio: Prevalentemente Nuvoloso 488 m
2020/12/03 05:00 HKJK 030500Z 05004KT 9999 BKN016 18/14
FZAA - Kinshasa, Congo
Ultimo Aggiornamento: Giovedì 03 Dicembre 2020 15:00 CET
Dati non Recenti
Prevalentemente Nuvoloso
Prevalentemente Nuvoloso
 Wind from Sud
Vento: Sud 15 km/h
Temperatura: 27°C
Heat Index: 29°C
Punto di Rugiada: 22°C
Umidità: 74%
Barometro: 1011 hPa
Nuvole: Prevalentemente Nuvoloso
Visibilità: 10 km
Nuvole nel Dettaglio: Parzialmente Nuvoloso 488 m
Prevalentemente Nuvoloso 3048 m
2020/12/03 14:00 FZAA 031400Z 18008KT 9999 SCT016 BKN100 27/22 Q1011 NOSIG
FLKK - Lusaka, Zambia
Ultimo Aggiornamento: Giovedì 03 Dicembre 2020 17:00 CET
Prevalentemente Nuvoloso
Prevalentemente Nuvoloso
 Wind from Nord-Est
Vento: Nord-Est 13 km/h
Temperatura: 24°C
Punto di Rugiada: 17°C
Umidità: 65%
Barometro: 1016 hPa
Nuvole: Prevalentemente Nuvoloso
Visibilità: 10 km
Nuvole nel Dettaglio: Qualche Nuvola 1372 m
Parzialmente Nuvoloso 3048 m
Prevalentemente Nuvoloso 9144 m
2020/12/03 16:00 FLKK 031600Z 04007KT 9999 FEW045CB SCT100 BKN300 24/17 Q1016
 
FAOR - Johannesburg, South Africa
Ultimo Aggiornamento: Giovedì 03 Dicembre 2020 17:30 CET
Qualche Nuvola
Qualche Nuvola
 Wind from Nord-Ovest
Vento: Nord-Ovest 28 km/h
Temperatura: 20°C
Punto di Rugiada: 13°C
Umidità: 64%
Barometro: 1020 hPa
Nuvole: Qualche Nuvola
Visibilità: 10 km
Nuvole nel Dettaglio: Qualche Nuvola 1219 m
2020/12/03 16:30 FAOR 031630Z 32015KT 9999 FEW040 20/13 Q1020 NOSIG
FACT - Cape Town, South Africa
Ultimo Aggiornamento: Giovedì 03 Dicembre 2020 17:00 CET
Sereno
Sereno
 Wind from Sud
Vento: Sud 44 km/h, Raffica: 65 km/h
Temperatura: 20°C
Punto di Rugiada: 13°C
Umidità: 64%
Barometro: 1018 hPa
Condizioni: Sereno
Visibilità: superiore a 10 km
2020/12/03 16:00 FACT 031600Z 18024G35KT CAVOK 20/13 Q1018 NOSIG
FIMP - Mauritius Sir Seewoosagur Ramgoolam International Airport, Mauritius
Ultimo Aggiornamento: Giovedì 03 Dicembre 2020 17:00 CET
Prevalentemente Nuvoloso
Prevalentemente Nuvoloso
 Wind from Est-Sud-Est
Vento: Est-Sud-Est 9 km/h
Temperatura: 26°C
Punto di Rugiada: 22°C
Umidità: 79%
Barometro: 1017 hPa
Nuvole: Prevalentemente Nuvoloso
Visibilità: 10 km
Nuvole nel Dettaglio: Prevalentemente Nuvoloso 549 m
2020/12/03 16:00 FIMP 031600Z 11005KT 9999 BKN018 26/22 Q1017